Time;durP1;ratioP1;P1;durP2;ratioP2;P2;SDS_P1;SDS_P2;PMS_P1;PMS_P2;Temp;Humidity;BMP_temperature;BMP_pressure;BME280_temperature;BME280_humidity;BME280_pressure;Samples;Min_cycle;Max_cycle;Signal;HPM_P1;HPM_P2
2021/09/25 00:01:06;;;;;;;;;;;;;;;12.69;100.00;99755.64;1647660;86;21256;-88
2021/09/25 00:03:38;;;;;;;;;;;;;;;12.71;100.00;99758.95;1623305;87;20345;-85
2021/09/25 00:06:03;;;;;;;;;;;;;;;12.68;100.00;99757.98;1642679;86;20621;-87
2021/09/25 00:08:29;;;;;;;;;;;;;;;12.72;100.00;99753.95;1636010;86;20154;-85
2021/09/25 00:10:54;;;;;;;;;;;;;;;12.68;100.00;99760.63;1639302;86;20182;-85
2021/09/25 00:13:25;;;;;;;;;;;;;;;12.67;100.00;99754.49;1613316;86;21123;-84
2021/09/25 00:15:54;;;;;;;;;;;;;;;12.65;100.00;99745.91;1625539;87;20226;-85
2021/09/25 00:18:21;;;;;;;;;;;;;;;12.72;100.00;99749.98;1636413;85;21233;-85
2021/09/25 00:20:48;;;;;;;;;;;;;;;12.72;100.00;99752.62;1626124;85;20201;-85
2021/09/25 00:23:14;;;;;;;;;;;;;;;12.78;100.00;99745.80;1627569;86;20217;-85
2021/09/25 00:25:39;;;;;;;;;;;;;;;12.79;100.00;99748.27;1627385;87;21182;-85
2021/09/25 00:28:05;;;;;;;;;;;;;;;12.75;100.00;99743.00;1598846;87;20921;-84
2021/09/25 00:30:31;;;;;;;;;;;;;;;12.77;100.00;99741.02;1594327;87;20289;-90
2021/09/25 00:32:57;;;;;;;;;;;;;;;12.74;100.00;99744.83;1596852;87;20456;-85
2021/09/25 00:35:22;;;;;;;;;;;;;;;12.82;100.00;99738.63;1624383;87;20188;-87
2021/09/25 00:37:49;;;;;;;;;;;;;;;12.83;100.00;99744.23;1592119;87;21101;-85
2021/09/25 00:40:15;;;;;;;;;;;;;;;12.84;100.00;99739.27;1613526;87;20167;-88
2021/09/25 00:42:41;;;;;;;;;;;;;;;12.91;100.00;99739.36;1619952;86;20174;-91
2021/09/25 00:45:08;;;;;;;;;;;;;;;12.88;100.00;99743.21;1622558;87;20167;-85
2021/09/25 00:47:35;;;;;;;;;;;;;;;12.93;100.00;99730.23;1625337;86;20195;-86
2021/09/25 00:50:01;;;;;;;;;;;;;;;12.93;100.00;99732.88;1619477;86;21153;-86
2021/09/25 00:52:26;;;;;;;;;;;;;;;12.95;100.00;99727.91;1618500;86;20154;-89
2021/09/25 00:54:54;;;;;;;;;;;;;;;13.00;100.00;99738.78;1621691;87;20386;-87
2021/09/25 00:57:19;;;;;;;;;;;;;;;12.98;100.00;99740.28;1627249;86;20253;-87
2021/09/25 00:59:45;;;;;;;;;;;;;;;13.01;100.00;99732.48;1615768;86;20186;-88
2021/09/25 01:02:11;;;;;;;;;;;;;;;13.00;100.00;99734.80;1622316;86;21204;-87
2021/09/25 01:04:38;;;;;;;;;;;;;;;13.00;100.00;99728.98;1622310;86;20224;-90
2021/09/25 01:07:04;;;;;;;;;;;;;;;13.11;100.00;99723.73;1621645;86;20505;-88
2021/09/25 01:09:30;;;;;;;;;;;;;;;13.16;100.00;99718.73;1624411;86;20178;-86
2021/09/25 01:12:02;;;;;;;;;;;;;;;13.25;100.00;99736.19;1620760;87;20288;-86
2021/09/25 01:14:31;;;;;;;;;;;;;;;13.28;100.00;99733.17;1625087;86;20108;-86
2021/09/25 01:17:04;;;;;;;;;;;;;;;13.28;100.00;99731.84;1637069;86;20164;-85
2021/09/25 01:19:30;;;;;;;;;;;;;;;13.31;100.00;99735.13;1620763;86;20220;-85
2021/09/25 01:21:55;;;;;;;;;;;;;;;13.42;100.00;99728.05;1627584;86;20541;-85
2021/09/25 01:24:23;;;;;;;;;;;;;;;13.46;100.00;99734.63;1627434;86;20151;-85
2021/09/25 01:26:51;;;;;;;;;;;;;;;13.53;100.00;99730.73;1641898;85;21039;-86
2021/09/25 01:29:20;;;;;;;;;;;;;;;13.67;100.00;99739.16;1628107;86;20201;-87
2021/09/25 01:31:47;;;;;;;;;;;;;;;13.61;100.00;99726.63;1608993;87;20155;-85
2021/09/25 01:34:17;;;;;;;;;;;;;;;13.67;100.00;99729.86;1620157;86;20185;-85
2021/09/25 01:36:42;;;;;;;;;;;;;;;13.60;100.00;99732.97;1628126;86;20183;-86
2021/09/25 01:39:08;;;;;;;;;;;;;;;13.56;100.00;99735.14;1628811;86;21029;-85
2021/09/25 01:41:34;;;;;;;;;;;;;;;13.51;100.00;99732.75;1625274;86;20173;-87
2021/09/25 01:43:59;;;;;;;;;;;;;;;13.55;100.00;99728.22;1622034;87;20734;-86
2021/09/25 01:46:25;;;;;;;;;;;;;;;13.57;100.00;99723.54;1627830;86;20177;-88
2021/09/25 01:48:52;;;;;;;;;;;;;;;13.62;100.00;99722.47;1633045;86;20468;-85
2021/09/25 01:51:18;;;;;;;;;;;;;;;13.64;100.00;99723.12;1625181;86;20161;-85
2021/09/25 01:53:44;;;;;;;;;;;;;;;13.65;100.00;99721.28;1609798;87;20614;-91
2021/09/25 01:56:12;;;;;;;;;;;;;;;13.71;100.00;99719.20;1633007;86;20159;-85
2021/09/25 01:58:38;;;;;;;;;;;;;;;13.78;100.00;99719.27;1633914;86;20218;-91
2021/09/25 02:01:05;;;;;;;;;;;;;;;13.74;100.00;99720.67;1610609;87;20204;-87
2021/09/25 02:03:40;;;;;;;;;;;;;;;13.80;100.00;99722.58;1623710;86;21002;-85
2021/09/25 02:06:09;;;;;;;;;;;;;;;13.79;100.00;99728.89;1588487;88;20216;-86
2021/09/25 02:08:38;;;;;;;;;;;;;;;13.84;100.00;99722.50;1613972;87;20503;-87
2021/09/25 02:11:07;;;;;;;;;;;;;;;13.82;100.00;99726.67;1617443;87;20209;-86
2021/09/25 02:13:36;;;;;;;;;;;;;;;13.83;100.00;99730.17;1612531;87;20238;-86
2021/09/25 02:16:01;;;;;;;;;;;;;;;13.91;100.00;99724.73;1608501;87;21112;-86
2021/09/25 02:18:29;;;;;;;;;;;;;;;13.98;100.00;99728.29;1610012;87;20137;-87
2021/09/25 02:20:56;;;;;;;;;;;;;;;13.98;100.00;99726.95;1622621;87;20187;-85
2021/09/25 02:23:23;;;;;;;;;;;;;;;14.00;100.00;99728.91;1612968;87;20181;-85
2021/09/25 02:25:49;;;;;;;;;;;;;;;14.00;100.00;99726.26;1611401;87;20198;-85
2021/09/25 02:28:16;;;;;;;;;;;;;;;14.02;100.00;99722.60;1632564;87;21121;-86
2021/09/25 02:30:45;;;;;;;;;;;;;;;14.04;100.00;99716.07;1629120;87;20512;-86
2021/09/25 02:33:11;;;;;;;;;;;;;;;14.18;100.00;99714.36;1639706;86;20151;-85
2021/09/25 02:35:37;;;;;;;;;;;;;;;14.18;100.00;99724.98;1602352;86;20182;-87
2021/09/25 02:38:06;;;;;;;;;;;;;;;14.14;100.00;99725.88;1634621;86;20129;-85
2021/09/25 02:40:35;;;;;;;;;;;;;;;14.08;100.00;99713.88;1627757;86;20099;-86
2021/09/25 02:43:02;;;;;;;;;;;;;;;14.16;100.00;99719.05;1628151;85;20433;-86
2021/09/25 02:45:29;;;;;;;;;;;;;;;14.22;100.00;99715.64;1608337;86;21004;-87
2021/09/25 02:47:55;;;;;;;;;;;;;;;14.25;100.00;99709.95;1627547;86;20122;-84
2021/09/25 02:50:25;;;;;;;;;;;;;;;14.21;100.00;99708.67;1630980;86;20170;-87
2021/09/25 02:52:51;;;;;;;;;;;;;;;14.31;100.00;99711.84;1614579;87;20131;-86
2021/09/25 02:55:17;;;;;;;;;;;;;;;14.23;100.00;99704.02;1622715;86;21182;-83
2021/09/25 02:57:44;;;;;;;;;;;;;;;14.21;100.00;99705.20;1612486;87;20142;-83
2021/09/25 03:00:15;;;;;;;;;;;;;;;14.22;100.00;99706.34;1630644;86;20084;-88
2021/09/25 03:02:42;;;;;;;;;;;;;;;14.30;100.00;99702.22;1631037;86;20198;-84
2021/09/25 03:05:08;;;;;;;;;;;;;;;14.31;100.00;99698.55;1631564;86;20227;-85
2021/09/25 03:07:36;;;;;;;;;;;;;;;14.22;100.00;99691.73;1644135;86;20437;-85
2021/09/25 03:10:05;;;;;;;;;;;;;;;14.18;100.00;99702.41;1633084;86;20163;-83
2021/09/25 03:12:31;;;;;;;;;;;;;;;14.22;100.00;99705.02;1626319;86;20603;-84
2021/09/25 03:14:58;;;;;;;;;;;;;;;14.17;100.00;99710.09;1633708;86;20577;-84
2021/09/25 03:17:26;;;;;;;;;;;;;;;14.26;100.00;99702.30;1627209;86;21251;-85
2021/09/25 03:19:54;;;;;;;;;;;;;;;14.30;100.00;99704.87;1645871;86;20157;-84
2021/09/25 03:22:21;;;;;;;;;;;;;;;14.26;100.00;99706.28;1630959;86;20219;-83
2021/09/25 03:24:47;;;;;;;;;;;;;;;14.25;100.00;99704.63;1623081;86;20141;-87
2021/09/25 03:27:12;;;;;;;;;;;;;;;14.33;100.00;99701.83;1626113;86;20152;-83
2021/09/25 03:29:42;;;;;;;;;;;;;;;14.41;100.00;99702.72;1592874;87;21122;-84
2021/09/25 03:32:09;;;;;;;;;;;;;;;14.42;100.00;99700.36;1625031;86;20241;-84
2021/09/25 03:34:34;;;;;;;;;;;;;;;14.50;100.00;99694.41;1631271;86;20207;-85
2021/09/25 03:37:01;;;;;;;;;;;;;;;14.53;100.00;99688.70;1633139;86;20171;-85
2021/09/25 03:39:27;;;;;;;;;;;;;;;14.49;100.00;99687.95;1636852;86;20206;-84
2021/09/25 03:41:56;;;;;;;;;;;;;;;14.50;100.00;99696.25;1621303;86;21148;-84
2021/09/25 03:44:25;;;;;;;;;;;;;;;14.45;100.00;99701.30;1620316;87;20518;-85
2021/09/25 03:46:52;;;;;;;;;;;;;;;14.47;100.00;99699.30;1623784;86;20149;-86
2021/09/25 03:49:20;;;;;;;;;;;;;;;14.44;100.00;99695.69;1646346;86;20162;-85
2021/09/25 03:51:49;;;;;;;;;;;;;;;14.44;100.00;99703.66;1646141;86;20087;-87
2021/09/25 03:54:15;;;;;;;;;;;;;;;14.35;100.00;99699.80;1635885;86;21150;-87
2021/09/25 03:56:42;;;;;;;;;;;;;;;14.26;100.00;99716.91;1617882;87;20147;-84
2021/09/25 03:59:10;;;;;;;;;;;;;;;14.29;100.00;99719.19;1592776;87;20135;-86
2021/09/25 04:01:36;;;;;;;;;;;;;;;14.27;100.00;99721.19;1648887;86;20173;-85
2021/09/25 04:04:01;;;;;;;;;;;;;;;14.29;100.00;99727.16;1649126;86;20728;-87
2021/09/25 04:06:30;;;;;;;;;;;;;;;14.30;100.00;99722.66;1618191;86;21984;-87
2021/09/25 04:08:57;;;;;;;;;;;;;;;14.26;100.00;99727.53;1646012;86;20185;-86
2021/09/25 04:11:24;;;;;;;;;;;;;;;14.30;100.00;99723.46;1644913;86;20213;-86
2021/09/25 04:13:51;;;;;;;;;;;;;;;14.33;100.00;99731.05;1621867;86;20502;-85
2021/09/25 04:16:18;;;;;;;;;;;;;;;14.33;100.00;99720.42;1646688;86;20194;-85
2021/09/25 04:18:44;;;;;;;;;;;;;;;14.43;100.00;99716.63;1646062;86;21292;-87
2021/09/25 04:21:10;;;;;;;;;;;;;;;14.47;100.00;99725.86;1619429;86;20665;-86
2021/09/25 04:23:35;;;;;;;;;;;;;;;14.46;100.00;99722.36;1594890;85;20228;-87
2021/09/25 04:26:04;;;;;;;;;;;;;;;14.47;100.00;99727.19;1620896;86;20670;-85
2021/09/25 04:28:31;;;;;;;;;;;;;;;14.58;100.00;99725.84;1624405;86;20198;-85
2021/09/25 04:30:57;;;;;;;;;;;;;;;14.52;100.00;99725.58;1652735;85;21004;-85
2021/09/25 04:33:23;;;;;;;;;;;;;;;14.54;100.00;99724.91;1645844;86;20180;-84
2021/09/25 04:35:49;;;;;;;;;;;;;;;14.48;100.00;99719.52;1639991;86;20270;-86
2021/09/25 04:38:14;;;;;;;;;;;;;;;14.51;100.00;99724.44;1640594;86;20145;-88
2021/09/25 04:40:44;;;;;;;;;;;;;;;14.54;100.00;99724.06;1652667;86;20822;-85
2021/09/25 04:43:10;;;;;;;;;;;;;;;14.48;100.00;99732.80;1639937;86;22004;-89
2021/09/25 04:45:38;;;;;;;;;;;;;;;14.43;100.00;99741.34;1638546;86;20124;-86
2021/09/25 04:48:05;;;;;;;;;;;;;;;14.45;100.00;99743.80;1603986;87;20207;-83
2021/09/25 04:50:32;;;;;;;;;;;;;;;14.46;100.00;99750.77;1628164;86;20231;-84
2021/09/25 04:53:10;;;;;;;;;;;;;;;14.44;100.00;99753.62;1620774;86;20206;-85
2021/09/25 04:55:36;;;;;;;;;;;;;;;14.44;100.00;99756.28;1622015;86;21064;-87
2021/09/25 04:58:03;;;;;;;;;;;;;;;14.45;100.00;99746.46;1645001;85;20245;-84
2021/09/25 05:00:30;;;;;;;;;;;;;;;14.36;100.00;99753.77;1648629;85;20186;-85
2021/09/25 05:02:56;;;;;;;;;;;;;;;14.40;100.00;99748.88;1647804;86;20205;-84
2021/09/25 05:05:23;;;;;;;;;;;;;;;14.47;100.00;99752.43;1648723;85;20153;-85
2021/09/25 05:07:50;;;;;;;;;;;;;;;14.48;100.00;99758.88;1650562;86;20557;-86
2021/09/25 05:10:16;;;;;;;;;;;;;;;14.47;100.00;99759.07;1612577;86;20440;-84
2021/09/25 05:12:44;;;;;;;;;;;;;;;14.56;100.00;99756.59;1629080;86;20280;-88
2021/09/25 05:15:10;;;;;;;;;;;;;;;14.48;100.00;99757.55;1631348;86;20197;-84
2021/09/25 05:17:40;;;;;;;;;;;;;;;14.45;100.00;99755.28;1604222;87;20210;-84
2021/09/25 05:20:09;;;;;;;;;;;;;;;14.50;100.00;99764.00;1627554;86;22001;-84
2021/09/25 05:22:36;;;;;;;;;;;;;;;14.56;100.00;99756.59;1632126;86;20260;-83
2021/09/25 05:25:03;;;;;;;;;;;;;;;14.59;100.00;99749.56;1630584;86;20169;-86
2021/09/25 05:27:30;;;;;;;;;;;;;;;14.60;100.00;99757.86;1631685;86;20185;-89
2021/09/25 05:29:56;;;;;;;;;;;;;;;14.62;100.00;99758.52;1607195;87;20186;-85
2021/09/25 05:32:22;;;;;;;;;;;;;;;14.59;100.00;99758.87;1636377;86;21128;-84
2021/09/25 05:34:51;;;;;;;;;;;;;;;14.61;100.00;99756.86;1630137;86;20146;-91
2021/09/25 05:37:19;;;;;;;;;;;;;;;14.68;100.00;99748.45;1627275;86;20275;-84
2021/09/25 05:39:47;;;;;;;;;;;;;;;14.76;100.00;99757.27;1612689;87;20249;-89
2021/09/25 05:42:14;;;;;;;;;;;;;;;14.72;100.00;99764.30;1647250;86;20496;-84
2021/09/25 05:44:44;;;;;;;;;;;;;;;14.66;100.00;99753.62;1631673;87;22156;-84
2021/09/25 05:47:11;;;;;;;;;;;;;;;14.85;100.00;99761.43;1607645;87;20134;-88
2021/09/25 05:49:36;;;;;;;;;;;;;;;14.91;100.00;99761.98;1634480;86;20976;-85
2021/09/25 05:52:06;;;;;;;;;;;;;;;14.96;100.00;99758.74;1632784;86;20151;-85
2021/09/25 05:54:32;;;;;;;;;;;;;;;14.98;100.00;99760.20;1631867;86;20183;-84
2021/09/25 05:56:57;;;;;;;;;;;;;;;14.97;100.00;99767.86;1633874;86;21127;-87
2021/09/25 05:59:23;;;;;;;;;;;;;;;15.15;100.00;99766.53;1631904;86;20147;-85
2021/09/25 06:01:49;;;;;;;;;;;;;;;15.12;100.00;99761.59;1634053;87;20723;-85
2021/09/25 06:04:17;;;;;;;;;;;;;;;15.14;100.00;99763.58;1633930;86;20185;-87
2021/09/25 06:06:45;;;;;;;;;;;;;;;15.07;100.00;99755.05;1626136;87;20215;-85
2021/09/25 06:09:12;;;;;;;;;;;;;;;15.09;100.00;99768.15;1627284;87;20217;-87
2021/09/25 06:11:37;;;;;;;;;;;;;;;15.09;100.00;99776.12;1632676;86;20500;-85
2021/09/25 06:14:03;;;;;;;;;;;;;;;15.09;100.00;99782.77;1631307;87;20203;-88
2021/09/25 06:16:30;;;;;;;;;;;;;;;15.19;100.00;99775.25;1631219;87;20148;-85
2021/09/25 06:18:55;;;;;;;;;;;;;;;15.28;100.00;99794.55;1605147;87;20213;-84
2021/09/25 06:21:21;;;;;;;;;;;;;;;15.18;100.00;99782.09;1630547;86;22373;-84
2021/09/25 06:23:49;;;;;;;;;;;;;;;15.22;100.00;99786.02;1632475;86;20284;-87
2021/09/25 06:26:14;;;;;;;;;;;;;;;15.23;100.00;99781.02;1631939;86;20491;-84
2021/09/25 06:28:47;;;;;;;;;;;;;;;15.26;100.00;99775.31;1631645;86;20185;-86
2021/09/25 06:31:13;;;;;;;;;;;;;;;15.22;100.00;99784.17;1642955;87;20186;-85
2021/09/25 06:33:42;;;;;;;;;;;;;;;15.27;100.00;99780.92;1646638;86;21094;-87
2021/09/25 06:36:10;;;;;;;;;;;;;;;15.28;100.00;99785.75;1627465;86;20193;-88
2021/09/25 06:38:45;;;;;;;;;;;;;;;15.32;100.00;99787.83;1628383;86;20170;-86
2021/09/25 06:41:12;;;;;;;;;;;;;;;15.38;100.00;99786.20;1627227;86;20179;-84
2021/09/25 06:43:38;;;;;;;;;;;;;;;15.35;100.00;99787.44;1631234;86;20200;-84
2021/09/25 06:46:03;;;;;;;;;;;;;;;15.36;100.00;99780.27;1648340;85;21237;-85
2021/09/25 06:48:32;;;;;;;;;;;;;;;15.42;100.00;99784.80;1630430;86;20466;-84
2021/09/25 06:51:01;;;;;;;;;;;;;;;15.46;100.00;99789.21;1632431;86;20166;-89
2021/09/25 06:53:27;;;;;;;;;;;;;;;15.53;100.00;99793.55;1636349;85;20261;-87
2021/09/25 06:55:54;;;;;;;;;;;;;;;15.56;100.00;99793.67;1634006;86;20545;-86
2021/09/25 06:58:20;;;;;;;;;;;;;;;15.65;100.00;99805.80;1630997;87;21176;-85
2021/09/25 07:00:47;;;;;;;;;;;;;;;15.60;100.00;99792.27;1600508;87;21280;-85
2021/09/25 07:03:13;;;;;;;;;;;;;;;15.64;100.00;99816.13;1641554;85;20139;-84
2021/09/25 07:05:39;;;;;;;;;;;;;;;15.77;100.00;99806.09;1629206;87;20521;-87
2021/09/25 07:08:05;;;;;;;;;;;;;;;15.74;100.00;99811.27;1628774;86;20281;-84
2021/09/25 07:10:36;;;;;;;;;;;;;;;15.82;100.00;99808.13;1644138;86;20900;-85
2021/09/25 07:13:01;;;;;;;;;;;;;;;15.87;100.00;99811.04;1628426;86;20152;-84
2021/09/25 07:15:27;;;;;;;;;;;;;;;15.90;100.00;99826.63;1603758;87;20210;-86
2021/09/25 07:17:53;;;;;;;;;;;;;;;15.93;100.00;99811.58;1629883;86;20164;-87
2021/09/25 07:20:18;;;;;;;;;;;;;;;16.06;100.00;99798.80;1638006;85;20452;-87
2021/09/25 07:22:50;;;;;;;;;;;;;;;15.96;100.00;99835.14;1632035;87;21992;-89
2021/09/25 07:25:18;;;;;;;;;;;;;;;15.97;100.00;99814.13;1631267;85;20141;-87
2021/09/25 07:27:44;;;;;;;;;;;;;;;16.00;100.00;99810.26;1618688;87;20214;-86
2021/09/25 07:30:11;;;;;;;;;;;;;;;16.00;100.00;99819.06;1646017;86;20770;-88
2021/09/25 07:32:37;;;;;;;;;;;;;;;16.03;100.00;99819.98;1646518;86;20604;-85
2021/09/25 07:35:05;;;;;;;;;;;;;;;16.10;100.00;99814.19;1645709;86;21080;-89
2021/09/25 07:37:34;;;;;;;;;;;;;;;16.10;100.00;99822.17;1644046;86;20160;-84
2021/09/25 07:40:04;;;;;;;;;;;;;;;16.12;100.00;99824.12;1647386;85;20471;-88
2021/09/25 07:42:30;;;;;;;;;;;;;;;16.07;100.00;99819.91;1637380;86;20250;-84
2021/09/25 07:44:56;;;;;;;;;;;;;;;16.11;100.00;99817.17;1634389;86;20276;-83
2021/09/25 07:47:25;;;;;;;;;;;;;;;16.10;100.00;99830.16;1639353;87;21087;-83
2021/09/25 07:49:52;;;;;;;;;;;;;;;16.14;100.00;99816.77;1636622;86;20189;-87
2021/09/25 07:52:18;;;;;;;;;;;;;;;16.19;100.00;99823.31;1605205;87;20176;-87
2021/09/25 07:54:46;;;;;;;;;;;;;;;16.26;100.00;99819.65;1637611;85;20235;-86
2021/09/25 07:57:12;;;;;;;;;;;;;;;16.31;100.00;99839.03;1638043;86;20996;-84
2021/09/25 07:59:39;;;;;;;;;;;;;;;16.31;100.00;99823.05;1634666;85;21105;-84
2021/09/25 08:02:07;;;;;;;;;;;;;;;16.30;100.00;99826.75;1636607;87;20214;-85
2021/09/25 08:04:32;;;;;;;;;;;;;;;16.27;100.00;99828.48;1631994;86;20226;-87
2021/09/25 08:06:58;;;;;;;;;;;;;;;16.31;100.00;99836.36;1632145;86;20166;-83
2021/09/25 08:09:24;;;;;;;;;;;;;;;16.35;100.00;99842.94;1630170;86;20147;-82
2021/09/25 08:11:51;;;;;;;;;;;;;;;16.32;100.00;99838.02;1628104;86;21243;-85
2021/09/25 08:14:16;;;;;;;;;;;;;;;16.33;100.00;99851.66;1633521;86;20176;-84
2021/09/25 08:16:45;;;;;;;;;;;;;;;16.34;100.00;99857.28;1629413;86;20149;-85
2021/09/25 08:19:11;;;;;;;;;;;;;;;16.37;100.00;99844.89;1636151;86;20204;-85
2021/09/25 08:21:36;;;;;;;;;;;;;;;16.45;100.00;99847.87;1633021;85;20149;-83
2021/09/25 08:24:02;;;;;;;;;;;;;;;16.46;100.00;99853.00;1633385;86;21165;-84
2021/09/25 08:26:28;;;;;;;;;;;;;;;16.47;100.00;99859.98;1618006;87;20287;-83
2021/09/25 08:28:54;;;;;;;;;;;;;;;16.44;100.00;99857.73;1618874;87;20176;-86
2021/09/25 08:31:20;;;;;;;;;;;;;;;16.41;100.00;99854.13;1613629;87;20216;-85
2021/09/25 08:33:46;;;;;;;;;;;;;;;16.32;100.00;99879.32;1617573;87;20144;-84
2021/09/25 08:36:11;;;;;;;;;;;;;;;16.33;100.00;99863.13;1615026;87;21204;-84
2021/09/25 08:38:40;;;;;;;;;;;;;;;16.35;100.00;99863.45;1615686;87;20183;-82
2021/09/25 08:41:06;;;;;;;;;;;;;;;16.24;100.00;99862.19;1615625;87;20177;-83
2021/09/25 08:43:33;;;;;;;;;;;;;;;16.15;100.00;99865.02;1618614;87;20638;-83
2021/09/25 08:46:04;;;;;;;;;;;;;;;16.19;100.00;99879.27;1613767;88;20256;-82
2021/09/25 08:48:30;;;;;;;;;;;;;;;16.20;100.00;99868.93;1591767;88;21331;-82
2021/09/25 08:50:56;;;;;;;;;;;;;;;16.20;100.00;99870.26;1614352;87;20171;-84
2021/09/25 08:53:22;;;;;;;;;;;;;;;16.17;100.00;99868.81;1616704;87;20235;-84
2021/09/25 08:55:49;;;;;;;;;;;;;;;16.23;100.00;99871.20;1567590;89;20203;-83
2021/09/25 08:58:15;;;;;;;;;;;;;;;16.08;100.00;99872.17;1611545;87;20205;-83
2021/09/25 09:00:43;;;;;;;;;;;;;;;16.07;100.00;99870.52;1615055;87;21192;-83
2021/09/25 09:03:24;;;;;;;;;;;;;;;16.03;100.00;99885.25;1613807;88;20273;-84
2021/09/25 09:05:54;;;;;;;;;;;;;;;16.06;100.00;99876.86;1583058;89;20204;-83
2021/09/25 09:08:22;;;;;;;;;;;;;;;16.07;100.00;99877.70;1601085;89;20271;-83
2021/09/25 09:10:48;;;;;;;;;;;;;;;16.05;100.00;99882.39;1623268;87;20180;-83
2021/09/25 09:13:16;;;;;;;;;;;;;;;16.00;100.00;99876.84;1624721;86;21178;-84
2021/09/25 09:15:44;;;;;;;;;;;;;;;16.02;100.00;99872.97;1622367;87;20165;-86
2021/09/25 09:18:14;;;;;;;;;;;;;;;16.04;100.00;99876.77;1610358;87;20217;-83
2021/09/25 09:20:40;;;;;;;;;;;;;;;16.00;100.00;99878.17;1615081;87;20215;-85
2021/09/25 09:23:17;;;;;;;;;;;;;;;16.04;100.00;99889.56;1616452;87;20151;-81
2021/09/25 09:25:45;;;;;;;;;;;;;;;15.99;100.00;99888.02;1617689;85;21025;-82
2021/09/25 09:28:14;;;;;;;;;;;;;;;16.02;100.00;99886.29;1627510;86;20506;-83
2021/09/25 09:30:51;;;;;;;;;;;;;;;16.12;100.00;99886.72;1625056;86;20139;-82
2021/09/25 09:33:34;;;;;;;;;;;;;;;16.06;100.00;99895.50;1600719;87;20692;-83
2021/09/25 09:36:20;;;;;;;;;;;;;;;16.07;100.00;99883.03;1599812;88;20213;-81
2021/09/25 09:38:55;;;;;;;;;;;;;;;16.04;100.00;99882.91;1606597;88;20947;-83
2021/09/25 09:41:45;;;;;;;;;;;;;;;16.19;100.00;99889.92;1607526;88;20211;-82
2021/09/25 09:44:15;;;;;;;;;;;;;;;16.11;100.00;99879.77;1561493;90;20327;-82
2021/09/25 09:46:46;;;;;;;;;;;;;;;16.19;100.00;99879.27;1612261;88;20625;-83
2021/09/25 09:49:17;;;;;;;;;;;;;;;16.18;100.00;99889.63;1604016;88;20671;-85
2021/09/25 09:51:48;;;;;;;;;;;;;;;16.22;100.00;99886.37;1586062;89;20513;-81
2021/09/25 09:54:26;;;;;;;;;;;;;;;16.26;100.00;99888.11;1617405;88;20165;-82
2021/09/25 09:56:55;;;;;;;;;;;;;;;16.47;100.00;99891.97;1584672;88;20199;-81
2021/09/25 09:59:23;;;;;;;;;;;;;;;16.37;100.00;99890.19;1605302;88;20131;-81
2021/09/25 10:01:48;;;;;;;;;;;;;;;16.41;100.00;99884.78;1613110;87;20522;-82
2021/09/25 10:04:19;;;;;;;;;;;;;;;16.41;100.00;99888.78;1610606;87;21174;-84
2021/09/25 10:06:47;;;;;;;;;;;;;;;16.47;100.00;99891.97;1534544;90;39085;-87
2021/09/25 10:09:15;;;;;;;;;;;;;;;16.47;100.00;99919.96;1562185;90;20207;-85
2021/09/25 10:11:43;;;;;;;;;;;;;;;16.53;100.00;99898.36;1576434;89;20279;-83
2021/09/25 10:14:09;;;;;;;;;;;;;;;16.58;100.00;99891.90;1573057;89;20207;-86
2021/09/25 10:16:34;;;;;;;;;;;;;;;16.58;100.00;99889.72;1578962;89;21196;-84
2021/09/25 10:19:04;;;;;;;;;;;;;;;16.58;100.00;99895.05;1612482;88;20573;-83
2021/09/25 10:21:33;;;;;;;;;;;;;;;16.61;100.00;99903.98;1611540;87;20221;-83
2021/09/25 10:24:04;;;;;;;;;;;;;;;16.65;100.00;99898.56;1577437;89;20595;-85
2021/09/25 10:26:29;;;;;;;;;;;;;;;16.61;100.00;99903.98;1622317;86;20152;-85
2021/09/25 10:28:58;;;;;;;;;;;;;;;16.69;100.00;99902.48;1632101;86;21985;-84
2021/09/25 10:31:23;;;;;;;;;;;;;;;16.76;100.00;99905.15;1627146;86;20181;-84
2021/09/25 10:34:11;;;;;;;;;;;;;;;16.73;100.00;99911.70;1631308;86;20268;-84
2021/09/25 10:36:47;;;;;;;;;;;;;;;16.77;100.00;99924.95;1630829;86;20219;-82
2021/09/25 10:39:26;;;;;;;;;;;;;;;16.78;100.00;99911.94;1635047;86;20335;-83
2021/09/25 10:42:12;;;;;;;;;;;;;;;16.75;100.00;99908.34;1634111;86;21072;-82
2021/09/25 10:44:43;;;;;;;;;;;;;;;16.85;100.00;99907.41;1624956;86;20484;-84
2021/09/25 10:47:13;;;;;;;;;;;;;;;16.93;100.00;99901.61;1599914;87;20216;-81
2021/09/25 10:49:43;;;;;;;;;;;;;;;17.01;100.00;99913.41;1634216;86;20224;-83
2021/09/25 10:52:09;;;;;;;;;;;;;;;17.11;100.00;99903.69;1630066;86;20457;-83
2021/09/25 10:54:35;;;;;;;;;;;;;;;17.25;100.00;99903.17;1633232;86;21415;-84
2021/09/25 10:57:04;;;;;;;;;;;;;;;17.27;100.00;99911.78;1630293;86;20228;-82
2021/09/25 10:59:30;;;;;;;;;;;;;;;17.34;100.00;99901.91;1634186;86;20563;-83
2021/09/25 11:01:59;;;;;;;;;;;;;;;17.37;100.00;99901.50;1628191;86;20524;-83
2021/09/25 11:04:24;;;;;;;;;;;;;;;17.36;100.00;99937.24;1625763;87;20213;-85
2021/09/25 11:06:56;;;;;;;;;;;;;;;17.34;100.00;99920.59;1616334;87;21889;-82
2021/09/25 11:09:28;;;;;;;;;;;;;;;17.38;100.00;99939.19;1631569;85;20151;-81
2021/09/25 11:12:09;;;;;;;;;;;;;;;17.43;100.00;99916.69;1632215;86;20259;-82
2021/09/25 11:14:54;;;;;;;;;;;;;;;17.46;100.00;99900.25;1634642;86;20284;-80
2021/09/25 11:17:27;;;;;;;;;;;;;;;17.58;100.00;99900.45;1629467;86;20255;-83
2021/09/25 11:19:56;;;;;;;;;;;;;;;17.55;100.00;99895.00;1628024;86;21203;-83
2021/09/25 11:22:28;;;;;;;;;;;;;;;17.51;100.00;99888.45;1631971;87;20967;-82
2021/09/25 11:25:13;;;;;;;;;;;;;;;17.58;100.00;99901.27;1631887;86;20550;-81
2021/09/25 11:27:41;;;;;;;;;;;;;;;17.60;100.00;99901.05;1632686;86;20225;-83
2021/09/25 11:30:10;;;;;;;;;;;;;;;17.63;100.00;99901.16;1630582;86;20250;-83
2021/09/25 11:32:52;;;;;;;;;;;;;;;17.52;100.00;99912.77;1626373;86;21105;-84
2021/09/25 11:35:24;;;;;;;;;;;;;;;17.57;100.00;99899.64;1616489;87;20370;-83
2021/09/25 11:38:03;;;;;;;;;;;;;;;17.69;100.00;99923.03;1620270;87;20151;-83
2021/09/25 11:40:41;;;;;;;;;;;;;;;17.67;100.00;99910.41;1622166;87;20655;-84
2021/09/25 11:43:09;;;;;;;;;;;;;;;17.69;100.00;99935.86;1630142;86;20142;-81
2021/09/25 11:45:37;;;;;;;;;;;;;;;17.72;100.00;99918.08;1634114;86;21118;-83
2021/09/25 11:48:05;;;;;;;;;;;;;;;17.79;100.00;99911.91;1641989;85;20227;-80
2021/09/25 11:50:38;;;;;;;;;;;;;;;17.77;100.00;99920.13;1641472;85;20142;-83
2021/09/25 11:53:06;;;;;;;;;;;;;;;17.76;100.00;99918.50;1637244;86;20542;-84
2021/09/25 11:55:34;;;;;;;;;;;;;;;17.69;100.00;99931.04;1635127;86;20221;-82
2021/09/25 11:58:02;;;;;;;;;;;;;;;17.66;100.00;99918.91;1638666;86;21457;-83
2021/09/25 12:00:35;;;;;;;;;;;;;;;17.66;100.00;99922.92;1630000;86;20262;-83
2021/09/25 12:03:04;;;;;;;;;;;;;;;17.69;100.00;99924.36;1636872;86;20182;-81
2021/09/25 12:05:33;;;;;;;;;;;;;;;17.75;100.00;99920.86;1627184;88;20211;-82
2021/09/25 12:08:09;;;;;;;;;;;;;;;17.76;100.00;99923.84;1626441;87;21266;-83
2021/09/25 12:10:40;;;;;;;;;;;;;;;17.87;100.00;99928.53;1653588;86;20161;-82
2021/09/25 12:13:13;;;;;;;;;;;;;;;17.80;100.00;99935.73;1650034;86;20230;-81
2021/09/25 12:15:41;;;;;;;;;;;;;;;17.85;100.00;99939.11;1659930;86;20895;-84
2021/09/25 12:18:10;;;;;;;;;;;;;;;17.84;100.00;99947.66;1630282;86;20764;-84
2021/09/25 12:20:37;;;;;;;;;;;;;;;17.92;100.00;99938.10;1650464;86;20168;-83
2021/09/25 12:23:04;;;;;;;;;;;;;;;17.96;100.00;99951.88;1652883;85;21122;-84
2021/09/25 12:25:32;;;;;;;;;;;;;;;17.92;100.00;99950.13;1640926;85;20165;-82
2021/09/25 12:27:59;;;;;;;;;;;;;;;17.99;100.00;99949.28;1579132;87;20115;-82
2021/09/25 12:30:27;;;;;;;;;;;;;;;17.97;100.00;99966.05;1599489;88;20496;-84
2021/09/25 12:33:04;;;;;;;;;;;;;;;17.85;99.72;99959.98;1619381;87;20156;-82
2021/09/25 12:35:29;;;;;;;;;;;;;;;17.90;97.19;99954.86;1634747;87;21277;-84
2021/09/25 12:37:56;;;;;;;;;;;;;;;17.91;96.89;99963.20;1613727;87;20155;-83
2021/09/25 12:40:22;;;;;;;;;;;;;;;18.00;96.74;99970.98;1612526;87;20329;-83
2021/09/25 12:42:49;;;;;;;;;;;;;;;18.04;97.14;99961.52;1618271;87;20523;-87